Time;durP1;ratioP1;P1;durP2;ratioP2;P2;SDS_P1;SDS_P2;PMS_P1;PMS_P2;Temp;Humidity;BMP_temperature;BMP_pressure;BME280_temperature;BME280_humidity;BME280_pressure;Samples;Min_cycle;Max_cycle;Signal;HPM_P1;HPM_P2
2021/01/18 00:00:26;;;;;;;35.50;15.45;;;6.30;97.80;;;5.92;85.05;101210.66;4989815;28;20051;-89
2021/01/18 00:02:53;;;;;;;33.85;14.20;;;6.30;97.80;;;5.91;84.91;101211.66;4991522;28;20070;-89
2021/01/18 00:05:22;;;;;;;27.83;12.38;;;6.30;97.70;;;5.94;84.70;101211.38;4991095;28;20062;-88
2021/01/18 00:07:51;;;;;;;30.33;12.02;;;6.30;97.80;;;5.92;84.34;101206.13;4991569;28;20499;-88
2021/01/18 00:10:21;;;;;;;33.45;11.10;;;6.30;97.90;;;5.92;84.62;101210.66;4990078;28;20508;-88
2021/01/18 00:12:49;;;;;;;39.03;11.52;;;6.30;97.80;;;5.95;84.53;101210.41;4991152;28;20034;-89
2021/01/18 00:15:21;;;;;;;34.08;9.93;;;6.30;97.90;;;5.95;84.21;101210.41;4991434;28;20846;-89
2021/01/18 00:17:49;;;;;;;34.08;10.45;;;6.30;97.90;;;5.93;84.56;101221.34;4991048;28;20046;-89
2021/01/18 00:20:19;;;;;;;30.33;10.23;;;6.30;97.80;;;5.94;84.62;101214.97;4991115;28;20050;-88
2021/01/18 00:22:47;;;;;;;33.38;11.20;;;6.30;97.90;;;5.88;84.52;101223.59;4990808;28;20050;-89
2021/01/18 00:25:16;;;;;;;37.67;12.55;;;6.30;97.80;;;5.92;84.28;101221.47;4990787;28;20734;-89
2021/01/18 00:27:44;;;;;;;30.17;11.77;;;6.30;97.60;;;5.93;84.63;101213.22;4991181;28;20080;-89
2021/01/18 00:30:14;;;;;;;27.77;9.85;;;6.30;97.70;;;5.97;84.24;101213.84;4989635;28;20054;-88
2021/01/18 00:32:42;;;;;;;24.10;9.30;;;6.30;97.50;;;5.94;84.40;101214.06;4990795;28;20450;-88
2021/01/18 00:35:12;;;;;;;25.73;9.90;;;6.30;97.40;;;5.93;84.27;101212.38;4990702;28;20069;-88
2021/01/18 00:37:43;;;;;;;24.88;9.40;;;6.30;97.40;;;5.95;84.13;101211.28;4990626;28;20054;-89
2021/01/18 00:40:12;;;;;;;25.52;10.65;;;6.30;97.50;;;5.99;83.96;101217.28;4990871;28;20093;-88
2021/01/18 00:42:41;;;;;;;27.80;10.85;;;6.30;97.70;;;5.93;84.35;101206.97;4990766;28;20076;-88
2021/01/18 00:45:11;;;;;;;29.17;12.90;;;6.30;97.60;;;5.98;84.04;101215.56;4989328;28;20046;-88
2021/01/18 00:47:42;;;;;;;37.80;13.80;;;6.30;97.80;;;5.93;84.56;101206.97;4990811;28;20054;-89
2021/01/18 00:50:12;;;;;;;32.97;13.75;;;6.30;97.80;;;5.91;84.28;101207.13;4989220;28;20572;-87
2021/01/18 00:52:41;;;;;;;38.85;14.35;;;6.30;97.60;;;5.91;84.52;101208.97;4989141;28;20046;-88
2021/01/18 00:55:17;;;;;;;37.00;14.50;;;6.30;97.90;;;5.89;84.68;101211.81;4989258;28;20512;-88
2021/01/18 00:57:56;;;;;;;41.45;15.05;;;6.30;97.50;;;5.95;84.75;101205.00;4989290;28;20053;-89
2021/01/18 01:00:26;;;;;;;33.05;14.80;;;6.30;97.70;;;5.95;84.76;101207.69;4989089;28;20076;-89
2021/01/18 01:02:54;;;;;;;33.40;13.98;;;6.30;97.80;;;5.95;84.48;101205.88;4990369;28;20050;-89
2021/01/18 01:05:23;;;;;;;35.28;13.80;;;6.30;97.60;;;5.92;84.42;101202.56;4988653;28;20101;-89
2021/01/18 01:07:52;;;;;;;32.63;12.98;;;6.30;97.70;;;5.93;84.35;101205.13;4990401;28;20058;-89
2021/01/18 01:10:22;;;;;;;29.08;12.25;;;6.30;97.80;;;5.97;84.35;101200.34;4989761;28;20050;-89
2021/01/18 01:12:54;;;;;;;30.88;11.10;;;6.30;97.70;;;5.97;84.20;101200.34;4989470;28;20047;-89
2021/01/18 01:15:22;;;;;;;27.92;10.82;;;6.30;97.50;;;5.92;84.25;101197.16;4988719;28;20415;-89
2021/01/18 01:17:49;;;;;;;34.20;11.98;;;6.30;97.50;;;5.95;83.94;101194.19;4990107;28;20065;-88
2021/01/18 01:20:19;;;;;;;27.98;10.50;;;6.30;97.50;;;5.92;83.98;101200.72;4990121;28;20046;-90
2021/01/18 01:22:47;;;;;;;27.70;10.77;;;6.20;97.40;;;5.93;84.60;101198.88;4990037;28;20137;-90
2021/01/18 01:25:16;;;;;;;36.40;11.88;;;6.20;97.50;;;5.95;84.05;101199.59;4989845;28;20043;-90
2021/01/18 01:27:44;;;;;;;28.35;10.88;;;6.20;97.50;;;5.88;84.30;101189.34;4989855;28;20500;-89
2021/01/18 01:30:14;;;;;;;31.65;11.57;;;6.30;97.70;;;5.94;84.56;101197.88;4989875;28;20050;-88
2021/01/18 01:32:47;;;;;;;25.30;11.18;;;6.30;97.60;;;5.91;84.22;101192.75;4989823;28;20046;-89
2021/01/18 01:35:15;;;;;;;28.17;11.02;;;6.20;97.50;;;5.89;84.19;101198.28;4989708;28;20039;-89
2021/01/18 01:37:42;;;;;;;28.35;11.60;;;6.20;97.60;;;5.86;84.52;101196.72;4989565;28;20619;-88
2021/01/18 01:40:12;;;;;;;26.15;11.75;;;6.20;97.60;;;5.87;84.59;101209.22;4989592;28;20043;-89
2021/01/18 01:42:40;;;;;;;31.80;12.43;;;6.20;97.70;;;5.85;84.71;101208.53;4989848;28;20122;-89
2021/01/18 01:45:13;;;;;;;36.28;12.13;;;6.20;97.70;;;5.87;84.81;101192.19;4987936;28;20042;-88
2021/01/18 01:47:42;;;;;;;29.55;11.88;;;6.20;97.70;;;5.91;84.68;101192.75;4987927;28;20088;-88
2021/01/18 01:50:12;;;;;;;30.88;11.77;;;6.20;97.70;;;5.91;84.56;101200.88;4989133;28;20045;-88
2021/01/18 01:52:45;;;;;;;28.20;11.52;;;6.20;97.70;;;5.88;84.47;101200.16;4989187;28;20051;-89
2021/01/18 01:55:24;;;;;;;31.35;10.45;;;6.20;97.60;;;5.88;84.11;101202.84;4989679;28;20424;-88
2021/01/18 01:57:53;;;;;;;31.48;11.85;;;6.20;97.60;;;5.86;84.37;101196.72;4989168;28;20054;-88
2021/01/18 02:00:23;;;;;;;36.95;12.40;;;6.20;97.40;;;5.87;84.32;101195.72;4989366;28;20050;-88
2021/01/18 02:02:50;;;;;;;30.42;12.20;;;6.20;97.50;;;5.84;84.39;101209.50;4989112;28;20042;-89
2021/01/18 02:05:19;;;;;;;32.05;12.02;;;6.20;97.40;;;5.83;84.25;101202.41;4989271;28;20050;-89
2021/01/18 02:07:46;;;;;;;30.15;11.10;;;6.20;97.50;;;5.85;84.30;101202.28;4989096;28;20071;-88
2021/01/18 02:10:13;;;;;;;32.13;12.40;;;6.20;97.40;;;5.83;84.26;101207.81;4988882;28;20053;-88
2021/01/18 02:12:40;;;;;;;36.80;13.30;;;6.20;97.50;;;5.82;84.33;101205.22;4988820;28;20538;-89
2021/01/18 02:15:21;;;;;;;43.10;13.40;;;6.20;97.50;;;5.85;84.42;101200.41;4989114;28;20535;-89
2021/01/18 02:18:11;;;;;;;34.83;13.03;;;6.20;97.50;;;5.85;84.23;101205.81;4987638;28;20452;-88
2021/01/18 02:21:19;;;;;;;23.20;11.50;;;6.20;97.50;;;5.88;84.21;101205.56;4988772;28;20293;-89
2021/01/18 02:24:45;;;;;;;23.23;9.18;;;6.20;97.60;;;5.88;84.01;101196.56;4988115;28;20046;-88
2021/01/18 02:28:03;;;;;;;19.20;9.93;;;6.20;97.40;;;5.92;83.37;101199.84;4988777;28;20058;-88
2021/01/18 02:31:07;;;;;;;28.05;10.77;;;6.10;97.40;;;5.87;84.16;101190.31;4988636;28;20042;-88
2021/01/18 02:34:36;;;;;;;29.08;11.77;;;6.20;97.40;;;5.85;84.17;101184.22;4961542;28;20050;-88
2021/01/18 02:37:29;;;;;;;40.85;14.75;;;6.10;97.50;;;5.83;83.86;101179.94;4988542;28;20151;-88
2021/01/18 02:40:06;;;;;;;34.20;15.43;;;6.10;97.50;;;5.83;83.64;101182.66;4988991;28;20046;-88
2021/01/18 02:42:41;;;;;;;41.58;17.38;;;6.10;97.50;;;5.81;84.09;101182.78;4988606;28;20046;-89
2021/01/18 02:45:11;;;;;;;36.13;18.38;;;6.20;97.70;;;5.83;84.12;101186.19;4988445;28;20062;-87
2021/01/18 02:47:40;;;;;;;40.45;18.63;;;6.10;97.50;;;5.80;83.89;101183.75;4988149;28;20420;-88
2021/01/18 02:50:09;;;;;;;40.17;18.50;;;6.10;97.40;;;5.84;83.69;101182.47;4987227;28;20039;-89
2021/01/18 02:52:41;;;;;;;37.85;18.38;;;6.10;97.40;;;5.85;83.68;101189.59;4986963;28;20054;-88
2021/01/18 02:55:10;;;;;;;41.28;18.17;;;6.10;97.50;;;5.85;83.57;101194.16;4988324;28;20042;-88
2021/01/18 02:57:40;;;;;;;35.90;17.55;;;6.10;97.60;;;5.82;83.64;101184.47;4988544;28;20054;-88
2021/01/18 03:00:13;;;;;;;41.90;18.10;;;6.10;97.40;;;5.83;83.83;101191.59;4988218;28;20116;-88
2021/01/18 03:02:54;;;;;;;38.65;18.48;;;6.10;97.40;;;5.80;83.82;101189.16;4986881;28;20046;-89
2021/01/18 03:05:38;;;;;;;35.88;17.55;;;6.10;97.50;;;5.82;83.89;101192.56;4986869;28;20062;-88
2021/01/18 03:08:20;;;;;;;41.28;18.02;;;6.10;97.50;;;5.82;83.69;101189.03;4988243;28;20531;-88
2021/01/18 03:10:56;;;;;;;43.72;17.95;;;6.10;97.50;;;5.80;83.96;101191.00;4988025;28;20400;-88
2021/01/18 03:13:29;;;;;;;41.47;18.38;;;6.10;97.60;;;5.77;83.73;101186.75;4988238;28;20050;-88
2021/01/18 03:16:03;;;;;;;40.22;17.00;;;6.10;97.60;;;5.77;83.91;101192.16;4986771;28;20524;-88
2021/01/18 03:18:33;;;;;;;43.22;17.45;;;6.00;97.60;;;5.78;83.62;101193.84;4988162;28;20045;-88
2021/01/18 03:21:01;;;;;;;33.78;16.25;;;6.10;97.60;;;5.80;83.50;101202.66;4987977;28;20070;-89
2021/01/18 03:23:30;;;;;;;33.72;15.60;;;6.10;97.50;;;5.81;83.56;101200.84;4986650;28;20520;-88
2021/01/18 03:25:57;;;;;;;38.65;15.68;;;6.00;97.40;;;5.80;83.77;101201.81;4988016;28;20046;-88
2021/01/18 03:28:25;;;;;;;31.98;13.60;;;6.00;97.40;;;5.81;83.98;101206.25;4988191;28;20050;-88
2021/01/18 03:30:52;;;;;;;35.60;14.95;;;6.00;97.40;;;5.82;83.36;101203.38;4987927;28;20381;-88
2021/01/18 03:33:24;;;;;;;36.92;16.00;;;6.00;97.40;;;5.79;83.36;101209.06;4987869;28;20042;-88
2021/01/18 03:35:51;;;;;;;40.50;16.08;;;6.10;97.50;;;5.75;83.70;101201.34;4990779;28;20042;-89
2021/01/18 03:38:18;;;;;;;38.28;16.55;;;6.10;97.40;;;5.79;83.87;101183.91;4990643;28;20045;-88
2021/01/18 03:40:47;;;;;;;35.80;15.20;;;6.10;97.40;;;5.79;83.76;101190.16;4990288;28;20182;-89
2021/01/18 03:43:14;;;;;;;34.28;16.17;;;6.10;97.30;;;5.76;83.75;101190.44;4990578;28;20046;-88
2021/01/18 03:45:44;;;;;;;36.05;16.67;;;6.00;97.20;;;5.80;83.94;101199.97;4990368;28;20053;-88
2021/01/18 03:48:12;;;;;;;41.17;17.83;;;6.10;97.40;;;5.75;83.63;101194.13;4990600;28;20061;-88
2021/01/18 03:50:42;;;;;;;39.05;18.58;;;6.10;97.30;;;5.77;83.66;101185.88;4990283;28;20046;-88
2021/01/18 03:53:10;;;;;;;37.97;17.90;;;6.10;97.20;;;5.83;82.99;101190.75;4990552;28;20069;-87
2021/01/18 03:55:37;;;;;;;45.97;19.95;;;6.00;97.30;;;5.77;83.32;101192.16;4990048;28;20046;-88
2021/01/18 03:58:06;;;;;;;40.08;19.10;;;6.10;97.30;;;5.80;83.65;101191.84;4988981;28;20077;-89
2021/01/18 04:00:35;;;;;;;39.97;18.95;;;6.00;97.20;;;5.83;83.10;101191.59;4988799;28;20055;-88
2021/01/18 04:03:02;;;;;;;42.03;19.20;;;6.00;97.40;;;5.79;83.73;101184.75;4990147;28;20077;-88
2021/01/18 04:05:29;;;;;;;40.83;19.20;;;6.00;97.40;;;5.79;83.39;101190.16;4990248;28;20575;-88
2021/01/18 04:07:57;;;;;;;36.63;18.75;;;6.00;97.40;;;5.81;83.41;101190.03;4990171;28;20050;-88
2021/01/18 04:10:25;;;;;;;36.83;18.48;;;6.00;97.40;;;5.80;83.29;101197.25;4989930;28;20050;-88
2021/01/18 04:12:53;;;;;;;42.70;19.15;;;6.00;97.40;;;5.74;83.92;101195.13;4988810;28;20065;-88
2021/01/18 04:15:23;;;;;;;44.70;19.63;;;6.00;97.40;;;5.76;84.03;101195.81;4989922;28;20049;-89
2021/01/18 04:17:52;;;;;;;41.85;20.20;;;6.00;97.60;;;5.83;83.23;101201.56;4988420;28;20535;-89
2021/01/18 04:20:20;;;;;;;39.17;19.20;;;6.00;97.60;;;5.79;83.29;101200.97;4989898;28;20125;-89
2021/01/18 04:22:50;;;;;;;39.33;19.33;;;6.00;97.50;;;5.78;83.33;101195.69;4988513;28;20856;-89
2021/01/18 04:25:20;;;;;;;40.90;20.50;;;5.90;97.60;;;5.79;84.06;101195.56;4988382;28;20046;-88
2021/01/18 04:27:48;;;;;;;40.22;20.65;;;6.00;97.70;;;5.76;83.70;101195.81;4989680;28;20046;-88
2021/01/18 04:30:17;;;;;;;37.60;19.05;;;6.00;97.60;;;5.78;83.69;101182.19;4989672;28;20053;-88
2021/01/18 04:32:52;;;;;;;37.22;20.27;;;6.00;97.60;;;5.77;83.65;101192.16;4989681;28;20053;-88
2021/01/18 04:35:19;;;;;;;45.83;22.15;;;6.00;97.60;;;5.74;83.69;101196.97;4989673;28;20519;-88
2021/01/18 04:37:46;;;;;;;47.22;19.70;;;6.00;97.50;;;5.73;83.78;101185.31;4967567;28;663691;-88
2021/01/18 04:40:17;;;;;;;36.65;18.75;;;6.00;97.50;;;5.78;83.87;101188.44;4990676;28;20512;-88
2021/01/18 04:42:44;;;;;;;42.00;18.63;;;6.00;97.50;;;5.76;83.70;101189.59;4990459;28;20053;-89
2021/01/18 04:45:14;;;;;;;39.80;18.25;;;6.00;97.60;;;5.76;83.85;101187.72;4988865;28;20109;-88
2021/01/18 04:47:43;;;;;;;36.88;18.55;;;6.00;97.60;;;5.81;83.66;101185.47;4990703;28;20042;-87
2021/01/18 04:50:13;;;;;;;41.83;18.02;;;6.00;97.60;;;5.78;83.34;101188.44;4990787;28;20046;-89
2021/01/18 04:52:49;;;;;;;36.42;18.50;;;6.00;97.50;;;5.80;83.39;101181.06;4990489;28;20068;-88
2021/01/18 04:55:28;;;;;;;33.95;17.40;;;6.00;97.60;;;5.85;83.30;101180.66;4990428;28;20500;-88
2021/01/18 04:58:06;;;;;;;36.22;17.40;;;6.00;97.60;;;5.84;83.10;101182.47;4990723;28;20038;-89
2021/01/18 05:00:43;;;;;;;39.85;17.52;;;6.00;97.70;;;5.84;83.47;101174.38;4990493;28;20050;-88
2021/01/18 05:03:12;;;;;;;36.80;17.25;;;6.00;97.70;;;5.78;83.62;101177.63;4989191;28;20058;-87
2021/01/18 05:06:26;;;;;;;32.40;17.30;;;6.00;97.60;;;5.81;83.54;101177.38;4990189;28;20043;-89
2021/01/18 05:09:30;;;;;;;37.35;17.13;;;6.00;97.70;;;5.79;82.94;101168.56;4990401;28;20050;-88
2021/01/18 05:11:59;;;;;;;32.42;15.35;;;6.00;97.60;;;5.80;83.68;101178.34;4990515;28;20129;-88
2021/01/18 05:14:26;;;;;;;38.10;17.40;;;6.00;97.70;;;5.83;83.44;101171.84;4988798;28;20057;-89
2021/01/18 05:16:56;;;;;;;37.38;17.73;;;6.00;97.70;;;5.79;83.21;101168.56;4990101;28;20054;-89
2021/01/18 05:19:26;;;;;;;36.00;16.52;;;6.00;97.50;;;5.80;83.27;101164.00;4988860;28;20149;-88
2021/01/18 05:21:54;;;;;;;38.90;15.93;;;6.00;97.60;;;5.76;83.30;101173.38;4990070;28;20050;-89
2021/01/18 05:24:22;;;;;;;33.63;16.77;;;6.00;97.60;;;5.75;82.96;101167.13;4990042;28;20046;-88
2021/01/18 05:27:09;;;;;;;33.80;16.92;;;6.00;97.40;;;5.75;83.41;101172.53;4988691;28;20054;-88
2021/01/18 05:29:38;;;;;;;33.13;16.20;;;6.00;97.40;;;5.79;83.59;101178.53;4989794;28;20050;-88
2021/01/18 05:32:22;;;;;;;33.85;16.67;;;6.00;97.40;;;5.72;83.68;101178.19;4989818;28;20046;-88
2021/01/18 05:34:49;;;;;;;36.72;16.05;;;6.00;97.50;;;5.78;83.35;101183.03;4989692;28;20046;-89
2021/01/18 05:37:19;;;;;;;38.55;18.98;;;6.00;97.50;;;5.76;83.46;101186.88;4989665;28;20050;-91
2021/01/18 05:39:46;;;;;;;38.38;16.85;;;6.00;97.50;;;5.78;83.13;101179.50;4990145;28;20146;-93
2021/01/18 05:42:40;;;;;;;31.23;16.98;;;6.00;97.50;;;5.76;83.48;101176.06;4991190;28;20121;-93
2021/01/18 05:45:10;;;;;;;37.85;19.13;;;6.00;97.40;;;5.74;83.57;101180.75;4991415;28;20046;-92
2021/01/18 05:47:42;;;;;;;37.17;18.50;;;6.00;97.30;;;5.80;83.68;101182.91;4992000;28;20053;-93
2021/01/18 05:50:10;;;;;;;40.20;18.25;;;6.00;97.30;;;5.80;83.34;101181.06;4994413;28;20104;-93
2021/01/18 05:52:38;;;;;;;37.60;18.05;;;6.00;97.40;;;5.76;83.29;101179.63;4993825;28;20054;-93
2021/01/18 05:55:21;;;;;;;33.40;17.08;;;6.00;97.40;;;5.70;83.78;101188.28;4991911;28;20052;-93
2021/01/18 05:57:51;;;;;;;39.33;17.58;;;6.10;97.40;;;5.74;83.61;101191.56;4991431;28;20543;-93
2021/01/18 06:00:35;;;;;;;44.00;19.60;;;6.00;97.20;;;5.75;83.64;101194.13;4991151;28;20046;-93
2021/01/18 06:03:07;;;;;;;46.67;17.75;;;6.00;97.40;;;5.79;83.78;101200.97;5003020;28;20034;-92
2021/01/18 06:05:36;;;;;;;38.60;18.27;;;6.00;97.40;;;5.83;83.64;101197.00;4998856;28;20057;-93
2021/01/18 06:08:13;;;;;;;40.40;18.23;;;6.00;97.40;;;5.82;82.97;101194.44;4996061;28;20105;-92
2021/01/18 06:10:41;;;;;;;41.72;17.85;;;6.00;97.40;;;5.80;83.45;101191.84;4996439;28;20046;-93
2021/01/18 06:13:27;;;;;;;36.13;17.52;;;6.00;97.40;;;5.74;83.19;101191.56;4990514;28;20042;-91
2021/01/18 06:16:13;;;;;;;35.33;16.75;;;6.00;97.40;;;5.71;83.48;101189.13;4989828;28;20055;-93
2021/01/18 06:19:04;;;;;;;38.83;17.77;;;6.00;97.30;;;5.74;83.80;101195.13;4989571;28;20050;-91
2021/01/18 06:21:36;;;;;;;43.47;15.93;;;6.00;97.40;;;5.78;83.64;101188.44;4990785;28;20046;-92
2021/01/18 06:24:20;;;;;;;40.17;18.10;;;6.00;97.60;;;5.78;83.32;101193.84;4993778;28;20145;-93
2021/01/18 06:26:48;;;;;;;35.47;16.63;;;6.00;97.40;;;5.80;83.42;101191.84;4991146;28;20062;-93
2021/01/18 06:29:42;;;;;;;31.92;16.63;;;6.00;97.40;;;5.74;83.61;101192.41;4990672;28;20050;-92
2021/01/18 06:32:12;;;;;;;38.45;16.48;;;6.00;97.30;;;5.75;83.23;101187.84;4989639;28;20162;-91
2021/01/18 06:34:39;;;;;;;35.20;15.80;;;6.00;97.30;;;5.72;83.15;101193.56;4990226;28;20165;-92
2021/01/18 06:37:43;;;;;;;36.53;16.63;;;6.00;97.20;;;5.74;83.45;101189.72;4989374;28;20058;-90
2021/01/18 06:40:27;;;;;;;42.45;17.02;;;6.00;97.20;;;5.79;82.89;101190.16;4988307;28;20140;-90
2021/01/18 06:42:59;;;;;;;36.85;16.75;;;6.00;97.20;;;5.74;83.04;101195.13;4987342;28;20046;-90
2021/01/18 06:45:35;;;;;;;41.38;17.27;;;5.90;97.10;;;5.72;82.96;101188.16;4988419;28;20047;-89
2021/01/18 06:48:05;;;;;;;36.13;16.67;;;5.90;97.00;;;5.76;82.60;101193.13;4987247;28;20062;-89
2021/01/18 06:50:36;;;;;;;38.77;17.03;;;5.90;97.20;;;5.74;82.84;101192.41;4987269;28;20578;-89
2021/01/18 06:53:31;;;;;;;37.17;17.85;;;5.90;97.30;;;5.70;82.89;101185.59;4987788;28;20300;-90
2021/01/18 06:56:58;;;;;;;39.00;16.67;;;5.90;97.30;;;5.72;82.91;101180.88;4987339;28;20042;-90
2021/01/18 07:00:04;;;;;;;37.40;16.83;;;5.90;97.30;;;5.73;82.82;101188.03;4909370;29;20067;-89
2021/01/18 07:02:39;;;;;;;37.15;18.13;;;5.90;97.30;;;5.69;82.71;101178.44;4949437;28;20058;-88
2021/01/18 07:05:10;;;;;;;38.20;18.25;;;5.90;97.10;;;5.70;82.62;101190.97;4969284;28;20050;-89
2021/01/18 07:07:39;;;;;;;42.72;18.30;;;5.90;97.10;;;5.73;82.64;101190.72;4969753;28;20065;-88
2021/01/18 07:10:11;;;;;;;39.83;17.60;;;5.90;97.10;;;5.71;82.54;101195.38;4971936;28;20097;-88
2021/01/18 07:16:53;;;;;;;45.92;17.63;;;5.90;97.00;;;5.63;83.18;101197.91;4889873;28;20053;-88
2021/01/18 07:19:29;;;;;;;44.03;17.83;;;5.90;97.30;;;5.68;83.36;101187.56;4986228;28;20381;-89
2021/01/18 07:22:13;;;;;;;45.38;18.13;;;5.90;97.20;;;5.64;83.34;101192.38;4967494;28;20054;-89
2021/01/18 07:24:50;;;;;;;46.90;18.27;;;5.90;97.10;;;5.63;83.52;101198.75;4967834;28;20417;-88
2021/01/18 07:27:25;;;;;;;37.00;18.05;;;5.90;97.30;;;5.64;83.83;101186.13;4967633;28;20069;-90
2021/01/18 07:30:22;;;;;;;41.88;17.48;;;6.20;97.50;;;5.64;83.92;101186.13;4967693;28;20050;-90
2021/01/18 07:32:49;;;;;;;42.65;18.58;;;5.90;97.40;;;5.71;83.40;101187.28;4968042;28;20170;-89
2021/01/18 07:35:34;;;;;;;43.78;17.77;;;5.90;97.50;;;5.71;83.30;101175.63;4967379;28;20646;-91
2021/01/18 07:38:22;;;;;;;45.53;18.63;;;5.90;97.50;;;5.71;83.75;101179.16;4967527;28;20058;-90
2021/01/18 07:41:29;;;;;;;50.17;19.52;;;6.00;97.50;;;5.73;82.97;101169.13;4969011;28;20489;-90
2021/01/18 07:44:48;;;;;;;43.90;19.85;;;6.00;97.50;;;5.72;83.42;101180.88;4966971;28;20061;-92
2021/01/18 07:47:17;;;;;;;42.05;19.55;;;6.00;97.40;;;5.68;83.61;101176.75;4979256;28;20074;-91
2021/01/18 07:49:47;;;;;;;47.95;21.52;;;6.00;97.40;;;5.72;83.47;101183.59;4986595;28;20073;-89
2021/01/18 07:52:45;;;;;;;44.58;22.63;;;6.00;97.20;;;5.73;83.86;101181.75;4987781;28;20714;-90
2021/01/18 07:55:22;;;;;;;46.90;20.50;;;6.00;97.20;;;5.71;83.65;101173.78;4982753;28;20062;-88
2021/01/18 07:57:49;;;;;;;51.20;19.73;;;6.00;97.20;;;5.72;83.91;101183.59;4974393;28;20571;-88
2021/01/18 08:01:31;;;;;;;;;;;;;;;;;;;;;
2021/01/18 08:04:57;;;;;;;36.67;18.70;;;6.10;97.00;;;5.80;83.27;101180.22;4966646;28;20524;-87
2021/01/18 08:07:24;;;;;;;53.85;20.17;;;6.10;97.30;;;5.77;83.36;101175.94;4964865;28;20158;-87
2021/01/18 08:09:54;;;;;;;52.20;21.80;;;6.10;97.30;;;5.79;83.46;101178.53;4985302;28;20539;-87
2021/01/18 08:12:31;;;;;;;44.72;20.45;;;6.00;97.10;;;5.71;83.66;101181.03;4986140;28;20050;-87
2021/01/18 08:15:08;;;;;;;49.72;20.08;;;6.10;97.20;;;5.74;83.44;101181.59;4985998;28;20047;-87
2021/01/18 08:18:54;;;;;;;48.90;22.60;;;6.10;97.20;;;5.81;83.31;101182.78;4987736;28;20049;-87
2021/01/18 08:22:07;;;;;;;51.03;19.20;;;6.10;97.30;;;5.81;83.51;101187.34;4854292;29;20514;-88
2021/01/18 08:25:06;;;;;;;50.58;19.05;;;6.10;97.40;;;5.82;83.42;101184.47;4983290;28;20132;-88
2021/01/18 08:27:46;;;;;;;44.67;17.02;;;6.10;97.30;;;5.82;83.88;101197.13;4989650;28;20416;-89
2021/01/18 08:30:32;;;;;;;34.63;15.40;;;6.10;97.40;;;5.90;83.13;101191.03;4989570;28;20419;-89
2021/01/18 08:33:17;;;;;;;39.00;16.52;;;6.10;97.50;;;5.89;83.42;101184.78;4989781;28;20104;-89
2021/01/18 08:35:50;;;;;;;41.67;16.88;;;6.10;97.60;;;5.84;83.61;101197.84;4989407;28;20468;-87
2021/01/18 08:38:27;;;;;;;35.55;15.30;;;6.10;97.50;;;5.89;83.50;101187.50;4990553;28;20058;-89
2021/01/18 08:41:03;;;;;;;35.05;14.77;;;6.10;97.60;;;5.91;83.88;101190.06;4990165;28;20046;-88
2021/01/18 08:43:50;;;;;;;41.55;14.73;;;6.20;97.70;;;5.86;83.79;101199.44;4974867;28;20601;-88
2021/01/18 08:46:34;;;;;;;35.72;15.00;;;6.20;97.70;;;5.94;83.52;101184.38;4971269;28;20043;-90
2021/01/18 08:49:21;;;;;;;40.60;14.80;;;6.20;97.50;;;5.98;83.36;101192.09;4971216;28;20043;-89
2021/01/18 08:51:49;;;;;;;42.42;15.23;;;6.20;97.50;;;6.00;83.42;101198.22;4969484;28;20536;-89
2021/01/18 08:54:31;;;;;;;40.17;14.95;;;6.20;97.60;;;5.97;83.43;101203.03;4970956;28;20149;-87
2021/01/18 08:57:23;;;;;;;32.42;14.43;;;6.20;97.60;;;5.95;83.88;101194.19;4983879;28;20092;-88
2021/01/18 09:00:04;;;;;;;45.40;14.23;;;6.30;97.60;;;5.96;83.87;101191.38;4984103;28;20521;-88
2021/01/18 09:02:34;;;;;;;39.03;15.32;;;6.30;97.50;;;5.99;83.64;101201.06;4988978;28;20054;-89
2021/01/18 09:05:19;;;;;;;37.67;15.13;;;6.30;97.50;;;6.07;83.36;101193.97;4989874;28;20129;-89
2021/01/18 09:07:47;;;;;;;38.30;14.55;;;6.30;97.40;;;6.01;83.47;101196.38;4990172;28;20057;-88
2021/01/18 09:10:16;;;;;;;35.97;14.15;;;6.30;97.40;;;6.01;83.21;101193.66;4990033;28;20046;-90
2021/01/18 09:12:44;;;;;;;40.30;15.35;;;6.30;97.30;;;6.03;83.70;101189.81;4989261;28;20062;-87
2021/01/18 09:15:13;;;;;;;39.63;15.02;;;6.30;97.30;;;6.02;83.83;101200.78;4985174;28;20042;-89
2021/01/18 09:17:40;;;;;;;42.38;14.80;;;6.30;97.30;;;5.99;83.49;101211.88;4969209;28;20047;-88
2021/01/18 09:20:10;;;;;;;38.78;16.77;;;6.30;97.30;;;5.99;83.80;101201.91;4969206;28;20055;-87
2021/01/18 09:22:41;;;;;;;38.50;16.55;;;6.30;97.20;;;5.97;83.75;101209.28;4969240;28;20535;-88
2021/01/18 09:25:11;;;;;;;40.47;15.77;;;6.40;97.30;;;5.97;83.97;101203.03;4970885;28;20073;-88
2021/01/18 09:27:39;;;;;;;42.58;15.98;;;6.40;97.20;;;5.98;83.73;101199.38;4969162;28;20428;-89
2021/01/18 09:30:09;;;;;;;49.80;17.30;;;6.40;97.00;;;5.97;84.17;101193.09;4969340;28;20054;-91
2021/01/18 09:32:37;;;;;;;38.08;16.10;;;6.40;97.00;;;6.01;84.00;101204.47;4969697;28;20074;-90
2021/01/18 09:35:10;;;;;;;43.25;16.30;;;6.40;96.90;;;5.96;84.32;101195.91;4970457;28;20047;-87
2021/01/18 09:37:42;;;;;;;41.60;16.67;;;6.50;97.00;;;5.99;83.91;101195.66;4969035;28;20186;-89
2021/01/18 09:40:10;;;;;;;45.40;16.48;;;6.40;96.90;;;6.02;83.94;101185.44;4969999;28;20559;-90
2021/01/18 09:42:39;;;;;;;37.05;15.63;;;6.50;96.90;;;6.01;84.22;101188.25;4968660;28;20150;-89
2021/01/18 09:45:08;;;;;;;41.30;18.13;;;6.40;96.90;;;6.01;83.87;101186.41;4988287;28;20093;-88
2021/01/18 09:47:36;;;;;;;43.60;17.98;;;6.40;96.90;;;6.04;84.10;101188.84;4987030;28;20073;-88
2021/01/18 09:50:12;;;;;;;39.25;15.07;;;6.50;97.20;;;6.06;84.24;101192.25;4968611;28;20054;-88
2021/01/18 09:52:41;;;;;;;47.85;17.45;;;6.50;97.20;;;6.10;84.16;101198.25;4968634;28;20055;-89
2021/01/18 09:55:20;;;;;;;36.42;15.68;;;6.50;97.20;;;6.10;83.96;101190.13;4970249;28;20108;-88
2021/01/18 09:57:56;;;;;;;38.78;15.73;;;6.50;97.20;;;6.15;84.05;101200.53;4970368;28;20113;-88
2021/01/18 10:00:30;;;;;;;40.78;16.17;;;6.50;97.00;;;6.17;83.50;101182.31;5004394;28;20054;-86
2021/01/18 10:03:02;;;;;;;42.53;16.30;;;6.60;96.90;;;6.15;83.97;101185.19;4987490;28;20054;-89
2021/01/18 10:05:37;;;;;;;42.30;17.23;;;6.60;96.90;;;6.20;83.98;101192.84;4987416;28;20520;-86
2021/01/18 10:08:21;;;;;;;37.45;15.65;;;6.60;96.90;;;6.23;83.92;101179.91;4987580;28;20093;-89
2021/01/18 10:10:51;;;;;;;37.95;14.90;;;6.60;97.00;;;6.15;84.27;101181.59;4987796;28;20050;-85
2021/01/18 10:13:23;;;;;;;34.53;15.38;;;6.60;96.90;;;6.16;84.42;101177.91;4987355;28;20054;-86
2021/01/18 10:15:53;;;;;;;49.97;18.00;;;6.70;96.90;;;6.20;83.57;101180.19;4987737;28;20182;-87
2021/01/18 10:18:33;;;;;;;44.35;16.48;;;6.90;97.00;;;6.17;83.75;101174.19;4988846;28;20054;-87
2021/01/18 10:21:02;;;;;;;37.30;16.55;;;6.70;96.60;;;6.21;84.07;101170.25;4988682;28;20053;-88
2021/01/18 10:23:33;;;;;;;44.20;16.05;;;6.70;96.80;;;6.19;84.14;101175.78;4988732;28;20046;-85
2021/01/18 10:26:24;;;;;;;48.55;17.80;;;6.70;96.70;;;6.15;83.81;101159.97;4987212;28;20050;-88
2021/01/18 10:28:56;;;;;;;40.63;14.93;;;6.80;96.50;;;6.21;83.84;101163.00;4983968;28;20051;-87
2021/01/18 10:31:26;;;;;;;44.85;15.93;;;6.70;96.40;;;6.23;83.48;101160.16;4969773;28;20043;-89
2021/01/18 10:34:25;;;;;;;40.22;15.35;;;6.70;96.30;;;6.23;84.07;101154.75;4968972;28;20051;-88
2021/01/18 10:36:54;;;;;;;46.10;15.70;;;6.70;96.30;;;6.29;83.72;101150.63;4968614;28;20417;-86
2021/01/18 10:39:41;;;;;;;38.50;16.02;;;6.70;96.40;;;6.25;83.43;101148.19;4968979;28;20069;-87
2021/01/18 10:42:46;;;;;;;44.85;15.68;;;6.70;96.20;;;6.24;83.46;101151.91;4968080;28;20054;-91
2021/01/18 10:45:17;;;;;;;39.03;14.40;;;6.70;96.10;;;6.28;83.35;101163.25;4967561;28;20119;-89
2021/01/18 10:47:55;;;;;;;41.35;16.08;;;6.70;96.20;;;6.30;83.27;101150.47;4968000;28;20065;-89
2021/01/18 10:50:31;;;;;;;39.90;14.57;;;6.70;96.10;;;6.29;83.35;101151.47;4969299;28;20058;-89
2021/01/18 10:53:09;;;;;;;36.53;14.75;;;6.70;96.10;;;6.25;83.66;101148.19;4969029;28;20047;-88
2021/01/18 10:55:37;;;;;;;37.70;14.63;;;6.70;96.10;;;6.29;83.18;101137.97;4967724;28;20133;-88